createdAt,value
2023-05-08T00:02:22.173Z,77.22
2023-05-08T00:04:49.074Z,79.18
2023-05-08T00:07:15.933Z,78.00
2023-05-08T00:09:43.166Z,78.97
2023-05-08T00:12:11.386Z,78.71
2023-05-08T00:14:38.112Z,78.99
2023-05-08T00:17:05.042Z,78.38
2023-05-08T00:19:31.832Z,80.99
2023-05-08T00:21:58.541Z,82.83
2023-05-08T00:24:25.330Z,83.60
2023-05-08T00:26:52.159Z,83.45
2023-05-08T00:29:20.248Z,83.26
2023-05-08T00:31:47.023Z,83.43
2023-05-08T00:34:13.713Z,83.29
2023-05-08T00:36:40.344Z,83.74
2023-05-08T00:39:07.093Z,83.94
2023-05-08T00:41:33.786Z,86.02
2023-05-08T00:44:00.485Z,87.26
2023-05-08T00:46:28.643Z,88.01
2023-05-08T00:48:55.333Z,86.97
2023-05-08T00:51:22.023Z,87.80
2023-05-08T00:53:48.775Z,88.15
2023-05-08T00:56:15.498Z,87.61
2023-05-08T00:58:42.344Z,88.18
2023-05-08T01:01:09.149Z,88.58
2023-05-08T01:03:37.439Z,88.38
2023-05-08T01:06:04.720Z,88.87
2023-05-08T01:08:31.501Z,89.29
2023-05-08T01:11:01.842Z,89.10
2023-05-08T01:13:34.504Z,89.59
2023-05-08T01:16:04.848Z,89.46
2023-05-08T01:18:34.271Z,89.23
2023-05-08T01:21:04.094Z,89.01
2023-05-08T01:24:00.120Z,89.68
2023-05-08T01:27:00.185Z,90.02
2023-05-08T01:29:36.720Z,89.64
2023-05-08T01:32:14.662Z,90.42
2023-05-08T01:34:44.624Z,90.61
2023-05-08T01:37:12.647Z,90.91
2023-05-08T01:39:42.791Z,90.99
2023-05-08T01:42:12.937Z,90.80
2023-05-08T01:44:47.569Z,91.05
2023-05-08T01:47:15.691Z,90.96
2023-05-08T01:49:43.634Z,90.68
2023-05-08T01:52:12.208Z,91.50
2023-05-08T01:54:41.225Z,91.96
2023-05-08T01:57:07.911Z,92.33
2023-05-08T01:59:34.625Z,91.45
2023-05-08T02:02:01.382Z,91.06
2023-05-08T02:04:29.521Z,91.83
2023-05-08T02:06:56.191Z,92.17
2023-05-08T02:09:23.024Z,91.67
2023-05-08T02:11:49.718Z,91.24
2023-05-08T02:14:16.409Z,90.86
2023-05-08T02:16:43.810Z,91.22
2023-05-08T02:19:10.553Z,91.04
2023-05-08T02:21:38.702Z,90.99
2023-05-08T02:24:05.705Z,91.33
2023-05-08T02:26:32.859Z,91.24
2023-05-08T02:28:59.541Z,91.55
2023-05-08T02:31:26.453Z,90.92
2023-05-08T02:33:53.147Z,91.22
2023-05-08T02:36:19.850Z,91.02
2023-05-08T02:38:50.231Z,91.35
2023-05-08T02:41:16.893Z,90.79
2023-05-08T02:43:43.601Z,91.04
2023-05-08T02:46:12.559Z,90.79
2023-05-08T02:48:42.903Z,90.31
2023-05-08T02:51:15.608Z,91.42
2023-05-08T02:53:45.705Z,90.99
2023-05-08T02:56:18.379Z,91.24
2023-05-08T02:58:47.688Z,91.83
2023-05-08T03:01:17.088Z,92.02
2023-05-08T03:03:45.409Z,92.34
2023-05-08T03:06:14.171Z,92.24
2023-05-08T03:08:40.881Z,93.21
2023-05-08T03:11:09.204Z,92.01
2023-05-08T03:13:37.300Z,91.73
2023-05-08T03:16:04.768Z,92.24
2023-05-08T03:18:33.714Z,91.93
2023-05-08T03:21:00.400Z,92.61
2023-05-08T03:23:28.291Z,92.86
2023-05-08T03:25:55.117Z,92.65
2023-05-08T03:28:21.793Z,93.19
2023-05-08T03:30:49.881Z,92.63
2023-05-08T03:33:16.721Z,92.20
2023-05-08T03:35:43.409Z,92.12
2023-05-08T03:38:10.093Z,91.94
2023-05-08T03:40:36.851Z,91.67
2023-05-08T03:43:03.581Z,91.51
2023-05-08T03:45:30.796Z,91.33
2023-05-08T03:47:58.945Z,90.87
2023-05-08T03:50:25.657Z,90.54
2023-05-08T03:52:52.388Z,90.40
2023-05-08T03:55:19.123Z,89.81
2023-05-08T03:57:49.201Z,89.02
2023-05-08T04:00:19.842Z,87.96
2023-05-08T04:02:48.381Z,87.76
2023-05-08T04:05:29.853Z,87.97
2023-05-08T04:07:57.286Z,88.00
2023-05-08T04:10:31.733Z,87.58
2023-05-08T04:13:03.182Z,88.21
2023-05-08T04:15:30.168Z,88.12
2023-05-08T04:17:59.190Z,88.43
2023-05-08T04:20:27.847Z,88.91
2023-05-08T04:22:54.829Z,86.99
2023-05-08T04:25:21.677Z,86.23
2023-05-08T04:27:48.588Z,86.56
2023-05-08T04:30:15.424Z,86.46
2023-05-08T04:32:44.147Z,85.23
2023-05-08T04:35:12.507Z,86.61
2023-05-08T04:37:41.153Z,84.94
2023-05-08T04:40:09.301Z,85.05
2023-05-08T04:42:35.981Z,84.43
2023-05-08T04:45:02.836Z,85.16
2023-05-08T04:47:29.589Z,82.52
2023-05-08T04:49:56.287Z,83.28
2023-05-08T04:52:22.924Z,83.00
2023-05-08T04:54:50.972Z,82.95
2023-05-08T04:57:17.741Z,83.32
2023-05-08T04:59:44.445Z,80.86
2023-05-08T05:02:11.195Z,80.99
2023-05-08T05:04:37.896Z,78.96
2023-05-08T05:07:04.613Z,79.83
2023-05-08T05:09:31.333Z,79.90
2023-05-08T05:11:59.390Z,78.05
2023-05-08T05:14:26.116Z,78.54
2023-05-08T05:16:52.838Z,78.28
2023-05-08T05:19:19.585Z,77.34
2023-05-08T05:21:47.039Z,75.57
2023-05-08T05:24:13.755Z,76.55
2023-05-08T05:26:40.427Z,74.13
2023-05-08T05:29:08.525Z,73.89
2023-05-08T05:31:35.429Z,77.05
2023-05-08T05:34:02.217Z,73.03
2023-05-08T05:36:28.905Z,75.37
2023-05-08T05:38:55.645Z,75.75
2023-05-08T05:41:22.396Z,74.35
2023-05-08T05:43:49.076Z,72.91
2023-05-08T05:46:17.204Z,71.80
2023-05-08T05:48:43.930Z,71.01
2023-05-08T05:51:10.692Z,76.64
2023-05-08T05:53:37.386Z,71.70
2023-05-08T05:56:04.436Z,70.83
2023-05-08T05:58:31.178Z,72.79
2023-05-08T06:00:58.671Z,70.35
2023-05-08T06:03:27.053Z,71.13
2023-05-08T06:05:54.611Z,67.82
2023-05-08T06:08:22.019Z,78.94
2023-05-08T06:10:48.686Z,70.45
2023-05-08T06:13:15.451Z,67.13
2023-05-08T06:15:42.273Z,66.31
2023-05-08T06:18:09.011Z,75.77
2023-05-08T06:20:38.479Z,69.56
2023-05-08T06:23:05.253Z,73.15
2023-05-08T06:25:31.955Z,69.92
2023-05-08T06:27:58.676Z,68.25
2023-05-08T06:30:25.379Z,67.20
2023-05-08T06:32:52.091Z,71.83
2023-05-08T06:35:18.880Z,67.90
2023-05-08T06:37:47.076Z,66.38
2023-05-08T06:40:14.095Z,70.36
2023-05-08T06:42:40.928Z,64.32
2023-05-08T06:45:08.625Z,70.20
2023-05-08T06:47:35.352Z,65.92
2023-05-08T06:50:02.152Z,65.88
2023-05-08T06:52:28.905Z,62.23
2023-05-08T06:54:56.977Z,61.33
2023-05-08T06:57:23.647Z,60.14
2023-05-08T06:59:50.405Z,61.32
2023-05-08T07:02:17.125Z,58.76
2023-05-08T07:04:44.405Z,59.48
2023-05-08T07:07:11.286Z,64.72
2023-05-08T07:09:37.982Z,61.25
2023-05-08T07:12:06.583Z,59.59
2023-05-08T07:14:33.323Z,58.98
2023-05-08T07:17:03.187Z,59.18
2023-05-08T07:19:29.923Z,57.65
2023-05-08T07:21:56.705Z,59.89
2023-05-08T07:24:23.422Z,54.12
2023-05-08T07:26:50.078Z,54.64
2023-05-08T07:29:18.182Z,50.47
2023-05-08T07:31:44.942Z,53.89
2023-05-08T07:34:11.714Z,54.16
2023-05-08T07:36:38.445Z,52.60
2023-05-08T07:39:05.155Z,51.60
2023-05-08T07:41:31.916Z,42.47
2023-05-08T07:43:58.809Z,44.88
2023-05-08T07:46:26.900Z,40.87
2023-05-08T07:48:53.590Z,47.67
2023-05-08T07:51:20.284Z,46.39
2023-05-08T07:53:47.166Z,51.83
2023-05-08T07:56:13.849Z,43.87
2023-05-08T07:58:40.574Z,37.30
2023-05-08T08:01:07.287Z,42.31
2023-05-08T08:03:35.713Z,45.27
2023-05-08T08:06:02.516Z,42.21
2023-05-08T08:08:29.180Z,34.14
2023-05-08T08:10:55.896Z,29.62
2023-05-08T08:13:25.728Z,39.15
2023-05-08T08:15:52.918Z,37.09
2023-05-08T08:18:19.718Z,37.60
2023-05-08T08:20:47.912Z,36.16
2023-05-08T08:23:14.644Z,38.13
2023-05-08T08:25:41.525Z,37.28
2023-05-08T08:28:08.281Z,31.43
2023-05-08T08:30:35.071Z,29.51
2023-05-08T08:33:02.209Z,27.20
2023-05-08T08:35:29.065Z,37.16
2023-05-08T08:37:57.180Z,30.96
2023-05-08T08:40:24.049Z,32.73
2023-05-08T08:42:50.781Z,27.85
2023-05-08T08:45:17.618Z,27.91
2023-05-08T08:47:44.825Z,27.27
2023-05-08T08:50:14.539Z,24.87
2023-05-08T08:52:45.346Z,28.13
2023-05-08T08:55:15.887Z,27.55
2023-05-08T08:57:51.921Z,28.70
2023-05-08T09:00:19.784Z,35.16
2023-05-08T09:02:46.538Z,33.62
2023-05-08T09:05:13.534Z,28.27
2023-05-08T09:07:40.516Z,25.99
2023-05-08T09:10:08.135Z,33.29
2023-05-08T09:12:36.226Z,33.00
2023-05-08T09:15:03.034Z,36.38
2023-05-08T09:17:29.771Z,35.07
2023-05-08T09:19:56.477Z,29.87
2023-05-08T09:22:23.174Z,28.08
2023-05-08T09:24:56.553Z,28.29
2023-05-08T09:27:23.281Z,25.97
2023-05-08T09:30:01.827Z,31.10
2023-05-08T09:32:29.258Z,33.35
2023-05-08T09:34:55.923Z,30.34
2023-05-08T09:37:22.633Z,32.52
2023-05-08T09:39:49.359Z,28.01
2023-05-08T09:42:16.092Z,29.33
2023-05-08T09:44:46.379Z,28.20
2023-05-08T09:47:15.188Z,29.41
2023-05-08T09:49:56.071Z,28.10
2023-05-08T09:52:23.085Z,27.87
2023-05-08T09:54:50.716Z,27.77
2023-05-08T09:57:17.470Z,33.93
2023-05-08T09:59:44.164Z,32.43
2023-05-08T10:02:11.124Z,31.30
2023-05-08T10:04:39.310Z,27.83
2023-05-08T10:07:06.246Z,32.73
2023-05-08T10:09:43.005Z,35.48
2023-05-08T10:12:14.226Z,24.72
2023-05-08T10:14:41.217Z,31.06
2023-05-08T10:17:08.977Z,30.79
2023-05-08T10:19:35.853Z,27.12
2023-05-08T10:22:03.857Z,31.44
2023-05-08T10:24:32.679Z,32.21
2023-05-08T10:27:07.308Z,28.08
2023-05-08T10:29:37.889Z,28.91
2023-05-08T10:32:04.986Z,24.02
2023-05-08T10:34:31.680Z,23.16
2023-05-08T10:36:58.408Z,25.91
2023-05-08T10:39:26.553Z,30.84
2023-05-08T10:41:53.199Z,32.54
2023-05-08T10:44:19.942Z,30.30
2023-05-08T10:46:51.192Z,34.50
2023-05-08T10:49:20.476Z,25.58
2023-05-08T10:51:52.933Z,25.95
2023-05-08T10:54:21.404Z,24.92
2023-05-08T10:56:50.120Z,28.56
2023-05-08T10:59:20.049Z,25.78
2023-05-08T11:01:47.839Z,24.56
2023-05-08T11:04:23.908Z,27.96
2023-05-08T11:06:50.871Z,23.59
2023-05-08T11:09:21.785Z,23.87
2023-05-08T11:12:08.597Z,26.20
2023-05-08T11:14:36.712Z,29.57
2023-05-08T11:17:07.109Z,24.84
2023-05-08T11:19:34.024Z,23.76
2023-05-08T11:22:20.622Z,21.48
2023-05-08T11:24:48.465Z,28.41
2023-05-08T11:27:16.639Z,28.71
2023-05-08T11:29:43.398Z,29.83
2023-05-08T11:32:10.274Z,32.04
2023-05-08T11:34:46.566Z,28.26
2023-05-08T11:37:17.247Z,25.60
2023-05-08T11:39:44.051Z,23.38
2023-05-08T11:42:37.032Z,25.74
2023-05-08T11:45:05.209Z,25.08
2023-05-08T11:47:35.727Z,27.87
2023-05-08T11:50:02.623Z,22.90
2023-05-08T11:52:31.402Z,23.94
2023-05-08T11:55:01.221Z,21.98
2023-05-08T11:57:28.055Z,22.63
2023-05-08T11:59:56.184Z,30.07
2023-05-08T12:02:35.299Z,26.79
2023-05-08T12:05:02.147Z,23.19
2023-05-08T12:07:28.992Z,22.16
2023-05-08T12:09:55.786Z,22.28
2023-05-08T12:12:22.498Z,22.91
2023-05-08T12:14:49.913Z,29.97
2023-05-08T12:17:18.702Z,27.94
2023-05-08T12:19:45.562Z,29.15
2023-05-08T12:22:12.435Z,31.67
2023-05-08T12:24:39.349Z,32.32
2023-05-08T12:27:06.076Z,30.51
2023-05-08T12:29:36.005Z,31.24
2023-05-08T12:32:02.690Z,32.01
2023-05-08T12:34:30.799Z,32.12
2023-05-08T12:37:03.799Z,27.42
2023-05-08T12:39:36.381Z,26.88
2023-05-08T12:42:03.172Z,31.29
2023-05-08T12:44:29.945Z,31.20
2023-05-08T12:46:57.104Z,30.02
2023-05-08T12:49:25.740Z,30.18
2023-05-08T12:52:00.305Z,30.24
2023-05-08T12:54:32.517Z,32.16
2023-05-08T12:56:59.217Z,30.73
2023-05-08T12:59:29.034Z,32.13
2023-05-08T13:01:55.786Z,30.70
2023-05-08T13:04:22.542Z,25.01
2023-05-08T13:06:55.610Z,28.95
2023-05-08T13:09:22.311Z,29.71
2023-05-08T13:11:49.165Z,31.09
2023-05-08T13:14:15.843Z,25.52
2023-05-08T13:16:43.209Z,24.59
2023-05-08T13:19:10.278Z,25.68
2023-05-08T13:21:37.225Z,27.62
2023-05-08T13:24:05.960Z,29.01
2023-05-08T13:26:32.675Z,28.93
2023-05-08T13:28:59.383Z,31.08
2023-05-08T13:31:26.109Z,28.98
2023-05-08T13:33:52.825Z,26.35
2023-05-08T13:36:19.566Z,25.12
2023-05-08T13:38:46.309Z,27.62
2023-05-08T13:41:14.424Z,31.16
2023-05-08T13:43:41.319Z,30.24
2023-05-08T13:46:08.011Z,29.97
2023-05-08T13:48:34.745Z,30.08
2023-05-08T13:51:01.528Z,25.12
2023-05-08T13:53:28.233Z,33.09
2023-05-08T13:55:54.998Z,30.50
2023-05-08T13:58:23.401Z,31.96
2023-05-08T14:00:51.420Z,33.03
2023-05-08T14:03:18.186Z,32.56
2023-05-08T14:05:44.957Z,31.67
2023-05-08T14:08:11.667Z,29.36
2023-05-08T14:10:38.371Z,29.04
2023-05-08T14:13:05.200Z,24.65
2023-05-08T14:15:37.059Z,24.87
2023-05-08T14:18:04.331Z,25.25
2023-05-08T14:20:31.141Z,28.52
2023-05-08T14:23:00.041Z,29.66
2023-05-08T14:25:27.020Z,26.93
2023-05-08T14:27:53.772Z,29.75
2023-05-08T14:30:20.588Z,28.64
2023-05-08T14:32:48.885Z,26.64
2023-05-08T14:35:15.990Z,27.27
2023-05-08T14:37:42.830Z,26.23
2023-05-08T14:40:09.804Z,28.58
2023-05-08T14:42:36.515Z,26.23
2023-05-08T14:45:03.600Z,27.84
2023-05-08T14:47:30.418Z,27.20
2023-05-08T14:49:58.596Z,25.29
2023-05-08T14:52:25.327Z,29.73
2023-05-08T14:54:52.201Z,26.55
2023-05-08T14:57:19.021Z,26.32
2023-05-08T14:59:54.199Z,28.33
2023-05-08T15:02:22.147Z,29.52
2023-05-08T15:04:48.916Z,29.02
2023-05-08T15:07:16.969Z,30.22
2023-05-08T15:09:43.708Z,28.42
2023-05-08T15:12:10.421Z,29.44
2023-05-08T15:14:37.068Z,30.87
2023-05-08T15:17:03.912Z,32.56
2023-05-08T15:19:30.640Z,31.98
2023-05-08T15:21:57.363Z,32.04
2023-05-08T15:24:25.451Z,31.22
2023-05-08T15:26:52.161Z,32.51
2023-05-08T15:29:18.814Z,33.19
2023-05-08T15:31:45.598Z,32.88
2023-05-08T15:34:12.324Z,31.69
2023-05-08T15:36:39.066Z,30.94
2023-05-08T15:39:05.807Z,29.03
2023-05-08T15:41:33.836Z,28.23
2023-05-08T15:44:00.594Z,32.05
2023-05-08T15:46:27.327Z,30.21
2023-05-08T15:48:54.061Z,30.25
2023-05-08T15:51:20.734Z,32.02
2023-05-08T15:53:47.694Z,32.65
2023-05-08T15:56:14.401Z,34.57
2023-05-08T15:58:42.483Z,33.59
2023-05-08T16:01:09.248Z,34.06
2023-05-08T16:03:36.056Z,35.40
2023-05-08T16:06:02.807Z,35.84
2023-05-08T16:08:29.577Z,36.89
2023-05-08T16:10:56.283Z,38.47
2023-05-08T16:13:23.072Z,39.48
2023-05-08T16:15:51.248Z,40.64
2023-05-08T16:18:17.960Z,40.68
2023-05-08T16:20:44.638Z,40.95
2023-05-08T17:26:10.267Z,48.97
2023-05-08T17:28:37.007Z,49.10
2023-05-08T17:31:03.853Z,48.80
2023-05-08T17:33:30.784Z,49.14
2023-05-08T17:35:57.671Z,49.12
2023-05-08T17:38:24.472Z,49.76
2023-05-08T17:40:51.207Z,49.75
2023-05-08T17:43:20.673Z,50.23
2023-05-08T17:45:48.247Z,50.97
2023-05-08T17:48:15.162Z,50.74
2023-05-08T17:50:41.914Z,51.25
2023-05-08T17:53:08.749Z,50.19
2023-05-08T17:55:35.604Z,50.21
2023-05-08T17:58:02.415Z,50.88
2023-05-08T18:00:30.864Z,50.50
2023-05-08T18:02:57.760Z,50.90
2023-05-08T18:05:24.542Z,51.41
2023-05-08T18:07:51.250Z,51.34
2023-05-08T18:10:18.280Z,51.50
2023-05-08T18:12:45.091Z,51.71
2023-05-08T18:15:12.317Z,51.90
2023-05-08T18:17:40.540Z,52.00
2023-05-08T18:20:10.829Z,52.76
2023-05-08T18:22:37.644Z,52.86
2023-05-08T18:25:05.001Z,52.20
2023-05-08T18:27:31.965Z,52.83
2023-05-08T18:29:58.651Z,52.54
2023-05-08T18:32:25.784Z,52.33
2023-05-08T18:34:53.907Z,52.48
2023-05-08T18:37:20.992Z,53.48
2023-05-08T18:39:47.789Z,53.38
2023-05-08T18:42:14.481Z,54.66
2023-05-08T18:44:41.139Z,54.95
2023-05-08T18:47:07.937Z,55.33
2023-05-08T18:49:34.628Z,54.30
2023-05-08T18:52:02.707Z,52.99
2023-05-08T18:54:29.533Z,54.63
2023-05-08T18:56:56.260Z,54.10
2023-05-08T18:59:22.948Z,54.25
2023-05-08T19:01:50.121Z,53.22
2023-05-08T19:04:16.878Z,53.40
2023-05-08T19:06:43.613Z,53.12
2023-05-08T19:09:11.685Z,53.74
2023-05-08T19:11:38.348Z,53.91
2023-05-08T19:14:05.056Z,53.20
2023-05-08T19:16:31.842Z,53.48
2023-05-08T19:18:58.623Z,52.88
2023-05-08T19:21:25.328Z,52.75
2023-05-08T19:23:52.038Z,52.73
2023-05-08T19:26:20.090Z,53.46
2023-05-08T19:28:46.897Z,53.57
2023-05-08T19:31:13.713Z,54.31
2023-05-08T19:33:40.414Z,54.06
2023-05-08T19:36:07.277Z,53.82
2023-05-08T19:38:34.160Z,53.55
2023-05-08T19:41:00.843Z,54.74
2023-05-08T19:43:28.932Z,54.05
2023-05-08T19:45:55.919Z,53.52
2023-05-08T19:48:22.793Z,54.23
2023-05-08T19:50:49.929Z,53.88
2023-05-08T19:53:17.642Z,54.24
2023-05-08T19:55:44.346Z,54.82
2023-05-08T19:58:10.991Z,54.76
2023-05-08T20:00:39.068Z,53.91
2023-05-08T20:03:05.824Z,54.93
2023-05-08T20:05:32.612Z,55.09
2023-05-08T20:07:59.447Z,55.44
2023-05-08T20:10:26.341Z,54.91
2023-05-08T20:12:53.142Z,55.53
2023-05-08T20:15:19.958Z,55.54
2023-05-08T20:17:48.165Z,56.09
2023-05-08T20:20:15.604Z,55.73
2023-05-08T20:22:42.498Z,55.40
2023-05-08T20:25:09.165Z,56.65
2023-05-08T20:27:35.973Z,56.63
2023-05-08T20:30:02.915Z,57.04
2023-05-08T20:32:29.708Z,57.14
2023-05-08T20:34:57.861Z,58.32
2023-05-08T20:37:24.625Z,56.54
2023-05-08T20:39:51.290Z,56.80
2023-05-08T20:42:17.971Z,57.01
2023-05-08T20:44:44.810Z,56.36
2023-05-08T20:47:11.533Z,56.16
2023-05-08T20:49:38.200Z,56.06
2023-05-08T20:52:06.363Z,56.35
2023-05-08T20:54:33.004Z,56.65
2023-05-08T20:56:59.707Z,55.86
2023-05-08T20:59:26.434Z,56.06
2023-05-08T21:01:53.078Z,56.17
2023-05-08T21:04:19.814Z,56.72
2023-05-08T21:06:46.570Z,57.13
2023-05-08T21:09:14.630Z,56.92
2023-05-08T21:11:41.322Z,56.64
2023-05-08T21:14:08.126Z,57.42
2023-05-08T21:16:34.941Z,57.24
2023-05-08T21:19:01.744Z,57.31
2023-05-08T21:21:28.522Z,56.64
2023-05-08T21:23:55.165Z,57.33
2023-05-08T21:26:23.370Z,56.64
2023-05-08T21:28:50.124Z,56.47
2023-05-08T21:31:16.954Z,56.87
2023-05-08T21:33:43.677Z,57.36
2023-05-08T21:36:10.416Z,57.73
2023-05-08T21:38:37.097Z,57.19
2023-05-08T21:41:06.933Z,58.79
2023-05-08T21:43:35.109Z,59.38
2023-05-08T21:46:03.804Z,59.82
2023-05-08T21:48:30.536Z,58.74
2023-05-08T21:50:57.387Z,59.56
2023-05-08T21:53:24.069Z,59.50
2023-05-08T21:55:50.749Z,59.77
2023-05-08T21:58:17.498Z,60.31
2023-05-08T22:00:45.678Z,60.20
2023-05-08T22:03:12.486Z,60.76
2023-05-08T22:05:39.258Z,60.56
2023-05-08T22:08:06.379Z,60.10
2023-05-08T22:10:33.090Z,60.40
2023-05-08T22:12:59.884Z,61.38
2023-05-08T22:15:30.265Z,61.32
2023-05-08T22:17:59.205Z,60.80
2023-05-08T22:20:26.193Z,60.89
2023-05-08T22:22:52.883Z,61.46
2023-05-08T22:25:19.636Z,60.62
2023-05-08T22:27:46.317Z,60.92
2023-05-08T22:30:13.267Z,61.05
2023-05-08T22:32:39.982Z,61.76
2023-05-08T22:35:08.590Z,61.36
2023-05-08T22:37:35.363Z,61.38
2023-05-08T22:40:02.030Z,62.36
2023-05-08T22:42:28.899Z,62.19
2023-05-08T22:44:55.551Z,63.10
2023-05-08T22:47:22.308Z,63.75
2023-05-08T22:49:49.008Z,64.95
2023-05-08T22:52:17.131Z,64.83
2023-05-08T22:54:43.827Z,65.84
2023-05-08T22:57:10.632Z,66.53
2023-05-08T22:59:37.322Z,66.35
2023-05-08T23:02:04.007Z,66.33
2023-05-08T23:04:30.765Z,66.81
2023-05-08T23:06:57.443Z,66.94
2023-05-08T23:09:25.500Z,66.72
2023-05-08T23:11:52.243Z,66.59
2023-05-08T23:14:18.927Z,66.04
2023-05-08T23:16:45.649Z,67.29
2023-05-08T23:19:12.409Z,66.16
2023-05-08T23:21:39.123Z,67.01
2023-05-08T23:24:06.392Z,68.03
2023-05-08T23:26:34.460Z,68.80
2023-05-08T23:29:01.217Z,69.17
2023-05-08T23:31:28.017Z,69.43
2023-05-08T23:33:54.853Z,69.46
2023-05-08T23:36:21.509Z,69.29
2023-05-08T23:38:48.220Z,69.60
2023-05-08T23:41:14.934Z,69.70
2023-05-08T23:43:43.081Z,71.60
2023-05-08T23:46:09.850Z,72.88
2023-05-08T23:48:36.702Z,73.64
2023-05-08T23:51:03.550Z,74.44
2023-05-08T23:53:30.260Z,74.92
2023-05-08T23:55:56.927Z,75.97
2023-05-08T23:58:23.609Z,77.08
